sensor_id;sensor_type;location;lat;lon;timestamp;temperature;humidity
23748;DHT22;12054;53.662;10.126;2022-12-18T00:00:41;-3.10;99.90
23748;DHT22;12054;53.662;10.126;2022-12-18T00:03:07;-3.10;99.90
23748;DHT22;12054;53.662;10.126;2022-12-18T00:05:32;-3.10;99.90
23748;DHT22;12054;53.662;10.126;2022-12-18T00:07:58;-3.10;99.90
23748;DHT22;12054;53.662;10.126;2022-12-18T00:10:23;-3.10;99.90
23748;DHT22;12054;53.662;10.126;2022-12-18T00:12:49;-3.10;99.90
23748;DHT22;12054;53.662;10.126;2022-12-18T00:15:14;-3.20;99.90
23748;DHT22;12054;53.662;10.126;2022-12-18T00:17:40;-3.20;99.90
23748;DHT22;12054;53.662;10.126;2022-12-18T00:20:06;-3.20;99.90
23748;DHT22;12054;53.662;10.126;2022-12-18T00:22:31;-3.20;99.90
23748;DHT22;12054;53.662;10.126;2022-12-18T00:24:57;-3.20;99.90
23748;DHT22;12054;53.662;10.126;2022-12-18T00:27:22;-3.20;99.90
23748;DHT22;12054;53.662;10.126;2022-12-18T00:29:48;-3.20;99.90
23748;DHT22;12054;53.662;10.126;2022-12-18T00:32:14;-3.20;99.90
23748;DHT22;12054;53.662;10.126;2022-12-18T00:34:39;-3.30;99.90
23748;DHT22;12054;53.662;10.126;2022-12-18T00:37:05;-3.30;99.90
23748;DHT22;12054;53.662;10.126;2022-12-18T00:39:30;-3.30;99.90
23748;DHT22;12054;53.662;10.126;2022-12-18T00:41:56;-3.30;99.90
23748;DHT22;12054;53.662;10.126;2022-12-18T00:44:40;-3.30;99.90
23748;DHT22;12054;53.662;10.126;2022-12-18T00:47:05;-3.30;99.90
23748;DHT22;12054;53.662;10.126;2022-12-18T00:49:31;-3.30;99.90
23748;DHT22;12054;53.662;10.126;2022-12-18T00:51:56;-3.40;99.90
23748;DHT22;12054;53.662;10.126;2022-12-18T00:54:22;-3.40;99.90
23748;DHT22;12054;53.662;10.126;2022-12-18T00:56:47;-3.40;99.90
23748;DHT22;12054;53.662;10.126;2022-12-18T00:59:13;-3.40;99.90
23748;DHT22;12054;53.662;10.126;2022-12-18T01:01:38;-3.40;99.90
23748;DHT22;12054;53.662;10.126;2022-12-18T01:04:04;-3.40;99.90
23748;DHT22;12054;53.662;10.126;2022-12-18T01:06:29;-3.40;99.90
23748;DHT22;12054;53.662;10.126;2022-12-18T01:08:55;-3.40;99.90
23748;DHT22;12054;53.662;10.126;2022-12-18T01:11:21;-3.50;99.90
23748;DHT22;12054;53.662;10.126;2022-12-18T01:13:47;-3.50;99.90
23748;DHT22;12054;53.662;10.126;2022-12-18T01:16:14;-3.50;99.90
23748;DHT22;12054;53.662;10.126;2022-12-18T01:18:40;-3.50;99.90
23748;DHT22;12054;53.662;10.126;2022-12-18T01:21:11;-3.50;99.90
23748;DHT22;12054;53.662;10.126;2022-12-18T01:23:37;-3.50;99.90
23748;DHT22;12054;53.662;10.126;2022-12-18T01:26:12;-3.60;99.90
23748;DHT22;12054;53.662;10.126;2022-12-18T01:28:38;-3.60;99.90
23748;DHT22;12054;53.662;10.126;2022-12-18T01:31:22;-3.60;99.90
23748;DHT22;12054;53.662;10.126;2022-12-18T01:33:49;-3.60;99.90
23748;DHT22;12054;53.662;10.126;2022-12-18T01:36:26;-3.60;99.90
23748;DHT22;12054;53.662;10.126;2022-12-18T01:38:52;-3.60;99.90
23748;DHT22;12054;53.662;10.126;2022-12-18T01:41:21;-3.70;99.90
23748;DHT22;12054;53.662;10.126;2022-12-18T01:43:50;-3.70;99.90
23748;DHT22;12054;53.662;10.126;2022-12-18T01:46:18;-3.70;99.90
23748;DHT22;12054;53.662;10.126;2022-12-18T01:48:46;-3.70;99.90
23748;DHT22;12054;53.662;10.126;2022-12-18T01:51:12;-3.70;99.90
23748;DHT22;12054;53.662;10.126;2022-12-18T01:53:40;-3.70;99.90
23748;DHT22;12054;53.662;10.126;2022-12-18T01:56:07;-3.70;99.90
23748;DHT22;12054;53.662;10.126;2022-12-18T01:58:45;-3.70;99.90
23748;DHT22;12054;53.662;10.126;2022-12-18T02:01:11;-3.70;99.90
23748;DHT22;12054;53.662;10.126;2022-12-18T02:03:37;-3.70;99.90
23748;DHT22;12054;53.662;10.126;2022-12-18T02:06:28;-3.70;99.90
23748;DHT22;12054;53.662;10.126;2022-12-18T02:09:07;-3.70;99.90
23748;DHT22;12054;53.662;10.126;2022-12-18T02:11:59;-3.80;99.90
23748;DHT22;12054;53.662;10.126;2022-12-18T02:14:42;-3.80;99.90
23748;DHT22;12054;53.662;10.126;2022-12-18T02:17:17;-3.80;99.90
23748;DHT22;12054;53.662;10.126;2022-12-18T02:22:24;-3.80;99.90
23748;DHT22;12054;53.662;10.126;2022-12-18T02:27:45;-3.80;99.90
23748;DHT22;12054;53.662;10.126;2022-12-18T02:30:12;-3.80;99.90
23748;DHT22;12054;53.662;10.126;2022-12-18T02:32:42;-3.80;99.90
23748;DHT22;12054;53.662;10.126;2022-12-18T02:35:13;-3.90;99.90
23748;DHT22;12054;53.662;10.126;2022-12-18T02:37:42;-3.90;99.90
23748;DHT22;12054;53.662;10.126;2022-12-18T02:40:09;-3.80;99.90
23748;DHT22;12054;53.662;10.126;2022-12-18T02:42:35;-3.90;99.90
23748;DHT22;12054;53.662;10.126;2022-12-18T02:45:01;-3.80;99.90
23748;DHT22;12054;53.662;10.126;2022-12-18T02:47:31;-3.80;99.90
23748;DHT22;12054;53.662;10.126;2022-12-18T02:52:53;-3.90;99.90
23748;DHT22;12054;53.662;10.126;2022-12-18T03:01:01;-3.90;99.90
23748;DHT22;12054;53.662;10.126;2022-12-18T03:03:43;-3.90;99.90
23748;DHT22;12054;53.662;10.126;2022-12-18T03:06:28;-3.90;99.90
23748;DHT22;12054;53.662;10.126;2022-12-18T03:09:19;-3.90;99.90
23748;DHT22;12054;53.662;10.126;2022-12-18T03:11:54;-3.90;99.90
23748;DHT22;12054;53.662;10.126;2022-12-18T03:14:41;-4.00;99.90
23748;DHT22;12054;53.662;10.126;2022-12-18T03:17:13;-4.00;99.90
23748;DHT22;12054;53.662;10.126;2022-12-18T03:19:41;-4.00;99.90
23748;DHT22;12054;53.662;10.126;2022-12-18T03:22:10;-4.00;99.90
23748;DHT22;12054;53.662;10.126;2022-12-18T03:24:36;-4.10;99.90
23748;DHT22;12054;53.662;10.126;2022-12-18T03:27:07;-4.10;99.90
23748;DHT22;12054;53.662;10.126;2022-12-18T03:29:44;-4.10;99.90
23748;DHT22;12054;53.662;10.126;2022-12-18T03:32:16;-4.10;99.90
23748;DHT22;12054;53.662;10.126;2022-12-18T03:34:43;-4.10;99.90
23748;DHT22;12054;53.662;10.126;2022-12-18T03:37:12;-4.10;99.90
23748;DHT22;12054;53.662;10.126;2022-12-18T03:39:37;-4.10;99.90
23748;DHT22;12054;53.662;10.126;2022-12-18T03:42:16;-4.10;99.90
23748;DHT22;12054;53.662;10.126;2022-12-18T03:45:02;-4.10;99.90
23748;DHT22;12054;53.662;10.126;2022-12-18T03:47:40;-4.20;99.90
23748;DHT22;12054;53.662;10.126;2022-12-18T03:50:18;-4.20;99.90
23748;DHT22;12054;53.662;10.126;2022-12-18T03:52:54;-4.20;99.90
23748;DHT22;12054;53.662;10.126;2022-12-18T03:55:23;-4.20;99.90
23748;DHT22;12054;53.662;10.126;2022-12-18T03:57:51;-4.20;99.90
23748;DHT22;12054;53.662;10.126;2022-12-18T04:00:18;-4.20;99.90
23748;DHT22;12054;53.662;10.126;2022-12-18T04:02:54;-4.30;99.90
23748;DHT22;12054;53.662;10.126;2022-12-18T04:05:22;-4.30;99.90
23748;DHT22;12054;53.662;10.126;2022-12-18T04:07:50;-4.30;99.90
23748;DHT22;12054;53.662;10.126;2022-12-18T04:10:17;-4.30;99.90
23748;DHT22;12054;53.662;10.126;2022-12-18T04:12:43;-4.30;99.90
23748;DHT22;12054;53.662;10.126;2022-12-18T04:15:10;-4.30;99.90
23748;DHT22;12054;53.662;10.126;2022-12-18T04:17:37;-4.30;99.90
23748;DHT22;12054;53.662;10.126;2022-12-18T04:20:03;-4.30;99.90
23748;DHT22;12054;53.662;10.126;2022-12-18T04:22:29;-4.30;99.90
23748;DHT22;12054;53.662;10.126;2022-12-18T04:24:54;-4.30;99.90
23748;DHT22;12054;53.662;10.126;2022-12-18T04:27:21;-4.30;99.90
23748;DHT22;12054;53.662;10.126;2022-12-18T04:29:46;-4.40;99.90
23748;DHT22;12054;53.662;10.126;2022-12-18T04:32:12;-4.30;99.90
23748;DHT22;12054;53.662;10.126;2022-12-18T04:34:37;-4.30;99.90
23748;DHT22;12054;53.662;10.126;2022-12-18T04:37:03;-4.40;99.90
23748;DHT22;12054;53.662;10.126;2022-12-18T04:39:28;-4.40;99.90
23748;DHT22;12054;53.662;10.126;2022-12-18T04:41:54;-4.40;99.90
23748;DHT22;12054;53.662;10.126;2022-12-18T04:44:19;-4.40;99.90
23748;DHT22;12054;53.662;10.126;2022-12-18T04:46:44;-4.40;99.90
23748;DHT22;12054;53.662;10.126;2022-12-18T04:49:10;-4.40;99.90
23748;DHT22;12054;53.662;10.126;2022-12-18T04:51:36;-4.40;99.90
23748;DHT22;12054;53.662;10.126;2022-12-18T04:54:02;-4.40;99.90
23748;DHT22;12054;53.662;10.126;2022-12-18T04:56:28;-4.40;99.90
23748;DHT22;12054;53.662;10.126;2022-12-18T04:58:53;-4.40;99.90
23748;DHT22;12054;53.662;10.126;2022-12-18T05:01:19;-4.50;99.90
23748;DHT22;12054;53.662;10.126;2022-12-18T05:03:44;-4.50;99.90
23748;DHT22;12054;53.662;10.126;2022-12-18T05:06:10;-4.50;99.90
23748;DHT22;12054;53.662;10.126;2022-12-18T05:08:36;-4.50;99.90
23748;DHT22;12054;53.662;10.126;2022-12-18T05:11:11;-4.50;99.90
23748;DHT22;12054;53.662;10.126;2022-12-18T05:13:37;-4.50;99.90
23748;DHT22;12054;53.662;10.126;2022-12-18T05:16:04;-4.50;99.90
23748;DHT22;12054;53.662;10.126;2022-12-18T05:18:30;-4.50;99.90
23748;DHT22;12054;53.662;10.126;2022-12-18T05:20:56;-4.50;99.90
23748;DHT22;12054;53.662;10.126;2022-12-18T05:23:22;-4.50;99.90
23748;DHT22;12054;53.662;10.126;2022-12-18T05:28:16;-4.50;99.90
23748;DHT22;12054;53.662;10.126;2022-12-18T05:30:42;-4.50;99.90
23748;DHT22;12054;53.662;10.126;2022-12-18T05:33:07;-4.50;99.90
23748;DHT22;12054;53.662;10.126;2022-12-18T05:35:33;-4.50;99.90
23748;DHT22;12054;53.662;10.126;2022-12-18T05:37:58;-4.50;99.90
23748;DHT22;12054;53.662;10.126;2022-12-18T05:40:24;-4.60;99.90
23748;DHT22;12054;53.662;10.126;2022-12-18T05:42:49;-4.50;99.90
23748;DHT22;12054;53.662;10.126;2022-12-18T05:45:15;-4.60;99.90
23748;DHT22;12054;53.662;10.126;2022-12-18T05:47:40;-4.60;99.90
23748;DHT22;12054;53.662;10.126;2022-12-18T05:50:06;-4.60;99.90
23748;DHT22;12054;53.662;10.126;2022-12-18T05:52:32;-4.60;99.90
23748;DHT22;12054;53.662;10.126;2022-12-18T05:54:58;-4.60;99.90
23748;DHT22;12054;53.662;10.126;2022-12-18T05:57:24;-4.60;99.90
23748;DHT22;12054;53.662;10.126;2022-12-18T05:59:49;-4.60;99.90
23748;DHT22;12054;53.662;10.126;2022-12-18T06:02:15;-4.60;99.90
23748;DHT22;12054;53.662;10.126;2022-12-18T06:04:40;-4.70;99.90
23748;DHT22;12054;53.662;10.126;2022-12-18T06:07:06;-4.70;99.90
23748;DHT22;12054;53.662;10.126;2022-12-18T06:09:32;-4.70;99.90
23748;DHT22;12054;53.662;10.126;2022-12-18T06:11:57;-4.70;99.90
23748;DHT22;12054;53.662;10.126;2022-12-18T06:14:23;-4.70;99.90
23748;DHT22;12054;53.662;10.126;2022-12-18T06:16:50;-4.70;99.90
23748;DHT22;12054;53.662;10.126;2022-12-18T06:19:16;-4.80;99.90
23748;DHT22;12054;53.662;10.126;2022-12-18T06:21:42;-4.70;99.90
23748;DHT22;12054;53.662;10.126;2022-12-18T06:24:08;-4.80;99.90
23748;DHT22;12054;53.662;10.126;2022-12-18T06:26:33;-4.70;99.90
23748;DHT22;12054;53.662;10.126;2022-12-18T06:28:59;-4.80;99.90
23748;DHT22;12054;53.662;10.126;2022-12-18T06:31:25;-4.80;99.90
23748;DHT22;12054;53.662;10.126;2022-12-18T06:33:50;-4.80;99.90
23748;DHT22;12054;53.662;10.126;2022-12-18T06:36:16;-4.80;99.90
23748;DHT22;12054;53.662;10.126;2022-12-18T06:38:43;-4.80;99.90
23748;DHT22;12054;53.662;10.126;2022-12-18T06:41:14;-4.80;99.90
23748;DHT22;12054;53.662;10.126;2022-12-18T06:43:40;-4.80;99.90
23748;DHT22;12054;53.662;10.126;2022-12-18T06:46:06;-4.80;99.90
23748;DHT22;12054;53.662;10.126;2022-12-18T06:48:32;-4.80;99.90
23748;DHT22;12054;53.662;10.126;2022-12-18T06:50:57;-4.90;99.90
23748;DHT22;12054;53.662;10.126;2022-12-18T06:53:23;-4.90;99.90
23748;DHT22;12054;53.662;10.126;2022-12-18T06:55:49;-4.90;99.90
23748;DHT22;12054;53.662;10.126;2022-12-18T06:58:15;-4.90;99.90
23748;DHT22;12054;53.662;10.126;2022-12-18T07:00:41;-4.90;99.90
23748;DHT22;12054;53.662;10.126;2022-12-18T07:03:06;-4.90;99.90
23748;DHT22;12054;53.662;10.126;2022-12-18T07:05:32;-5.00;99.90
23748;DHT22;12054;53.662;10.126;2022-12-18T07:07:58;-5.00;99.90
23748;DHT22;12054;53.662;10.126;2022-12-18T07:10:24;-4.90;99.90
23748;DHT22;12054;53.662;10.126;2022-12-18T07:12:49;-5.00;99.90
23748;DHT22;12054;53.662;10.126;2022-12-18T07:15:15;-5.00;99.90
23748;DHT22;12054;53.662;10.126;2022-12-18T07:17:40;-5.00;99.90
23748;DHT22;12054;53.662;10.126;2022-12-18T07:20:06;-5.00;99.90
23748;DHT22;12054;53.662;10.126;2022-12-18T07:22:32;-5.00;99.90
23748;DHT22;12054;53.662;10.126;2022-12-18T07:24:57;-5.00;99.90
23748;DHT22;12054;53.662;10.126;2022-12-18T07:27:24;-5.00;99.90
23748;DHT22;12054;53.662;10.126;2022-12-18T07:29:49;-5.00;99.90
23748;DHT22;12054;53.662;10.126;2022-12-18T07:32:15;-5.00;99.90
23748;DHT22;12054;53.662;10.126;2022-12-18T07:34:41;-5.00;99.90
23748;DHT22;12054;53.662;10.126;2022-12-18T07:37:06;-5.00;99.90
23748;DHT22;12054;53.662;10.126;2022-12-18T07:39:32;-5.00;99.90
23748;DHT22;12054;53.662;10.126;2022-12-18T07:41:57;-5.00;99.90
23748;DHT22;12054;53.662;10.126;2022-12-18T07:44:41;-5.00;99.90
23748;DHT22;12054;53.662;10.126;2022-12-18T07:47:07;-5.00;99.90
23748;DHT22;12054;53.662;10.126;2022-12-18T07:49:32;-5.00;99.90
23748;DHT22;12054;53.662;10.126;2022-12-18T07:51:58;-5.00;99.90
23748;DHT22;12054;53.662;10.126;2022-12-18T07:54:24;-5.00;99.90
23748;DHT22;12054;53.662;10.126;2022-12-18T07:56:51;-5.00;99.90
23748;DHT22;12054;53.662;10.126;2022-12-18T07:59:17;-5.00;99.90
23748;DHT22;12054;53.662;10.126;2022-12-18T08:01:43;-5.00;99.90
23748;DHT22;12054;53.662;10.126;2022-12-18T08:04:08;-5.00;99.90
23748;DHT22;12054;53.662;10.126;2022-12-18T08:06:34;-5.00;99.90
23748;DHT22;12054;53.662;10.126;2022-12-18T08:08:59;-5.00;99.90
23748;DHT22;12054;53.662;10.126;2022-12-18T08:11:26;-5.00;99.90
23748;DHT22;12054;53.662;10.126;2022-12-18T08:13:53;-5.00;99.90
23748;DHT22;12054;53.662;10.126;2022-12-18T08:16:19;-5.00;99.90
23748;DHT22;12054;53.662;10.126;2022-12-18T08:18:44;-5.00;99.90
23748;DHT22;12054;53.662;10.126;2022-12-18T08:21:14;-5.00;99.90
23748;DHT22;12054;53.662;10.126;2022-12-18T08:23:40;-4.90;99.90
23748;DHT22;12054;53.662;10.126;2022-12-18T08:26:06;-4.90;99.90
23748;DHT22;12054;53.662;10.126;2022-12-18T08:28:32;-4.90;99.90
23748;DHT22;12054;53.662;10.126;2022-12-18T08:30:58;-4.80;99.90
23748;DHT22;12054;53.662;10.126;2022-12-18T08:33:24;-4.80;99.90
23748;DHT22;12054;53.662;10.126;2022-12-18T08:35:49;-4.70;99.90
23748;DHT22;12054;53.662;10.126;2022-12-18T08:38:15;-4.60;99.90
23748;DHT22;12054;53.662;10.126;2022-12-18T08:40:40;-4.40;99.90
23748;DHT22;12054;53.662;10.126;2022-12-18T08:43:08;-4.30;99.90
23748;DHT22;12054;53.662;10.126;2022-12-18T08:45:53;-4.20;99.90
23748;DHT22;12054;53.662;10.126;2022-12-18T08:48:19;-4.10;99.90
23748;DHT22;12054;53.662;10.126;2022-12-18T08:50:56;-4.00;99.90
23748;DHT22;12054;53.662;10.126;2022-12-18T08:53:25;-3.90;99.90
23748;DHT22;12054;53.662;10.126;2022-12-18T08:55:52;-3.80;99.90
23748;DHT22;12054;53.662;10.126;2022-12-18T08:58:17;-3.70;99.90
23748;DHT22;12054;53.662;10.126;2022-12-18T09:00:43;-3.60;99.90
23748;DHT22;12054;53.662;10.126;2022-12-18T09:03:16;-3.60;99.90
23748;DHT22;12054;53.662;10.126;2022-12-18T09:05:42;-3.50;99.90
23748;DHT22;12054;53.662;10.126;2022-12-18T09:08:08;-3.40;99.90
23748;DHT22;12054;53.662;10.126;2022-12-18T09:10:40;-3.30;99.90
23748;DHT22;12054;53.662;10.126;2022-12-18T09:13:06;-3.20;99.90
23748;DHT22;12054;53.662;10.126;2022-12-18T09:15:31;-3.10;99.90
23748;DHT22;12054;53.662;10.126;2022-12-18T09:17:57;-3.00;99.90
23748;DHT22;12054;53.662;10.126;2022-12-18T09:20:22;-2.90;99.90
23748;DHT22;12054;53.662;10.126;2022-12-18T09:22:48;-2.80;99.90
23748;DHT22;12054;53.662;10.126;2022-12-18T09:25:13;-2.80;99.90
23748;DHT22;12054;53.662;10.126;2022-12-18T09:27:39;-2.70;99.90
23748;DHT22;12054;53.662;10.126;2022-12-18T09:30:05;-2.70;99.90
23748;DHT22;12054;53.662;10.126;2022-12-18T09:32:31;-2.70;99.90
23748;DHT22;12054;53.662;10.126;2022-12-18T09:34:56;-2.60;99.90
23748;DHT22;12054;53.662;10.126;2022-12-18T09:37:22;-2.50;99.90
23748;DHT22;12054;53.662;10.126;2022-12-18T09:39:47;-2.50;99.90
23748;DHT22;12054;53.662;10.126;2022-12-18T09:42:20;-2.30;99.90
23748;DHT22;12054;53.662;10.126;2022-12-18T09:44:50;-2.20;99.90
23748;DHT22;12054;53.662;10.126;2022-12-18T09:47:28;-2.10;99.90
23748;DHT22;12054;53.662;10.126;2022-12-18T09:50:01;-2.00;99.90
23748;DHT22;12054;53.662;10.126;2022-12-18T09:52:33;-1.90;99.90
23748;DHT22;12054;53.662;10.126;2022-12-18T09:57:33;-1.80;99.90
23748;DHT22;12054;53.662;10.126;2022-12-18T10:00:23;-1.60;99.90
23748;DHT22;12054;53.662;10.126;2022-12-18T10:02:58;-1.50;99.90
23748;DHT22;12054;53.662;10.126;2022-12-18T10:11:10;-1.30;99.90
23748;DHT22;12054;53.662;10.126;2022-12-18T10:13:57;-1.30;99.90
23748;DHT22;12054;53.662;10.126;2022-12-18T10:16:34;-1.40;99.90
23748;DHT22;12054;53.662;10.126;2022-12-18T10:24:57;-1.40;99.90
23748;DHT22;12054;53.662;10.126;2022-12-18T10:27:26;-1.40;99.90
23748;DHT22;12054;53.662;10.126;2022-12-18T10:29:52;-1.50;99.90
23748;DHT22;12054;53.662;10.126;2022-12-18T10:32:27;-1.50;99.90
23748;DHT22;12054;53.662;10.126;2022-12-18T10:34:55;-1.50;99.90
23748;DHT22;12054;53.662;10.126;2022-12-18T10:37:24;-1.40;99.90
23748;DHT22;12054;53.662;10.126;2022-12-18T10:40:14;-1.40;99.90
23748;DHT22;12054;53.662;10.126;2022-12-18T10:42:41;-1.30;99.90
23748;DHT22;12054;53.662;10.126;2022-12-18T10:45:17;-1.30;99.90
23748;DHT22;12054;53.662;10.126;2022-12-18T10:47:47;-1.40;99.90
23748;DHT22;12054;53.662;10.126;2022-12-18T10:50:32;-1.40;99.90
23748;DHT22;12054;53.662;10.126;2022-12-18T10:53:04;-1.40;99.90
23748;DHT22;12054;53.662;10.126;2022-12-18T10:55:33;-1.30;99.90
23748;DHT22;12054;53.662;10.126;2022-12-18T10:58:22;-1.30;99.90
23748;DHT22;12054;53.662;10.126;2022-12-18T11:01:06;-1.30;99.90
23748;DHT22;12054;53.662;10.126;2022-12-18T11:03:41;-1.20;99.90
23748;DHT22;12054;53.662;10.126;2022-12-18T11:08:35;-1.10;99.90
23748;DHT22;12054;53.662;10.126;2022-12-18T11:11:02;-1.10;99.90
23748;DHT22;12054;53.662;10.126;2022-12-18T11:13:29;-1.00;99.90
23748;DHT22;12054;53.662;10.126;2022-12-18T11:15:56;-1.00;99.90
23748;DHT22;12054;53.662;10.126;2022-12-18T11:18:30;-1.00;99.90
23748;DHT22;12054;53.662;10.126;2022-12-18T11:21:06;-0.90;99.90
23748;DHT22;12054;53.662;10.126;2022-12-18T11:23:34;-0.90;99.90
23748;DHT22;12054;53.662;10.126;2022-12-18T11:26:02;-0.80;99.90
23748;DHT22;12054;53.662;10.126;2022-12-18T11:28:36;-0.80;99.90
23748;DHT22;12054;53.662;10.126;2022-12-18T11:31:24;-0.90;99.90
23748;DHT22;12054;53.662;10.126;2022-12-18T11:33:56;-0.90;99.90
23748;DHT22;12054;53.662;10.126;2022-12-18T11:36:26;-1.00;99.90
23748;DHT22;12054;53.662;10.126;2022-12-18T11:38:54;-1.00;99.90
23748;DHT22;12054;53.662;10.126;2022-12-18T11:44:23;-1.00;99.90
23748;DHT22;12054;53.662;10.126;2022-12-18T11:46:55;-1.10;99.90
23748;DHT22;12054;53.662;10.126;2022-12-18T11:49:35;-1.20;99.90
23748;DHT22;12054;53.662;10.126;2022-12-18T11:54:41;-1.20;99.90
23748;DHT22;12054;53.662;10.126;2022-12-18T11:57:19;-1.30;99.90
23748;DHT22;12054;53.662;10.126;2022-12-18T12:00:14;-1.30;99.90
23748;DHT22;12054;53.662;10.126;2022-12-18T12:03:14;-1.20;99.90
23748;DHT22;12054;53.662;10.126;2022-12-18T12:06:09;-1.20;99.90
23748;DHT22;12054;53.662;10.126;2022-12-18T12:08:49;-1.20;99.90
23748;DHT22;12054;53.662;10.126;2022-12-18T12:25:49;-1.10;99.90
23748;DHT22;12054;53.662;10.126;2022-12-18T12:28:33;-1.20;99.90
23748;DHT22;12054;53.662;10.126;2022-12-18T12:31:24;-1.20;99.90
23748;DHT22;12054;53.662;10.126;2022-12-18T12:33:54;-1.20;99.90
23748;DHT22;12054;53.662;10.126;2022-12-18T12:36:34;-1.20;99.90
23748;DHT22;12054;53.662;10.126;2022-12-18T12:39:12;-1.20;99.90
23748;DHT22;12054;53.662;10.126;2022-12-18T12:41:41;-1.20;99.90
23748;DHT22;12054;53.662;10.126;2022-12-18T12:44:31;-1.20;99.90
23748;DHT22;12054;53.662;10.126;2022-12-18T12:49:45;-1.20;99.90
23748;DHT22;12054;53.662;10.126;2022-12-18T12:52:17;-1.20;99.90
23748;DHT22;12054;53.662;10.126;2022-12-18T12:54:46;-1.20;99.90
23748;DHT22;12054;53.662;10.126;2022-12-18T12:57:25;-1.20;99.90
23748;DHT22;12054;53.662;10.126;2022-12-18T13:00:01;-1.20;99.90
23748;DHT22;12054;53.662;10.126;2022-12-18T13:02:45;-1.20;99.90
23748;DHT22;12054;53.662;10.126;2022-12-18T13:05:23;-1.20;99.90
23748;DHT22;12054;53.662;10.126;2022-12-18T13:08:09;-1.20;99.90
23748;DHT22;12054;53.662;10.126;2022-12-18T13:10:41;-1.20;99.90
23748;DHT22;12054;53.662;10.126;2022-12-18T13:13:11;-1.20;99.90
23748;DHT22;12054;53.662;10.126;2022-12-18T13:15:42;-1.20;99.90
23748;DHT22;12054;53.662;10.126;2022-12-18T13:20:36;-1.30;99.90
23748;DHT22;12054;53.662;10.126;2022-12-18T13:23:38;-1.30;99.90
23748;DHT22;12054;53.662;10.126;2022-12-18T13:30:59;-1.30;99.90
23748;DHT22;12054;53.662;10.126;2022-12-18T13:38:42;-1.30;99.90
23748;DHT22;12054;53.662;10.126;2022-12-18T13:41:21;-1.30;99.90
23748;DHT22;12054;53.662;10.126;2022-12-18T13:44:21;-1.30;99.90
23748;DHT22;12054;53.662;10.126;2022-12-18T13:46:50;-1.30;99.90
23748;DHT22;12054;53.662;10.126;2022-12-18T13:49:36;-1.30;99.90
23748;DHT22;12054;53.662;10.126;2022-12-18T13:52:17;-1.30;99.90
23748;DHT22;12054;53.662;10.126;2022-12-18T13:54:47;-1.40;99.90
23748;DHT22;12054;53.662;10.126;2022-12-18T13:57:37;-1.40;99.90
23748;DHT22;12054;53.662;10.126;2022-12-18T14:02:50;-1.40;99.90
23748;DHT22;12054;53.662;10.126;2022-12-18T14:05:23;-1.40;99.90
23748;DHT22;12054;53.662;10.126;2022-12-18T14:07:49;-1.50;99.90
23748;DHT22;12054;53.662;10.126;2022-12-18T14:10:16;-1.50;99.90
23748;DHT22;12054;53.662;10.126;2022-12-18T14:12:45;-1.50;99.90
23748;DHT22;12054;53.662;10.126;2022-12-18T14:15:34;-1.50;99.90
23748;DHT22;12054;53.662;10.126;2022-12-18T14:18:18;-1.50;99.90
23748;DHT22;12054;53.662;10.126;2022-12-18T14:20:50;-1.60;99.90
23748;DHT22;12054;53.662;10.126;2022-12-18T14:23:38;-1.60;99.90
23748;DHT22;12054;53.662;10.126;2022-12-18T14:26:30;-1.60;99.90
23748;DHT22;12054;53.662;10.126;2022-12-18T14:28:57;-1.60;99.90
23748;DHT22;12054;53.662;10.126;2022-12-18T14:31:26;-1.70;99.90
23748;DHT22;12054;53.662;10.126;2022-12-18T14:33:52;-1.70;99.90
23748;DHT22;12054;53.662;10.126;2022-12-18T14:36:23;-1.70;99.90
23748;DHT22;12054;53.662;10.126;2022-12-18T14:38:58;-1.70;99.90
23748;DHT22;12054;53.662;10.126;2022-12-18T14:41:25;-1.70;99.90
23748;DHT22;12054;53.662;10.126;2022-12-18T14:43:53;-1.70;99.90
23748;DHT22;12054;53.662;10.126;2022-12-18T14:46:35;-1.70;99.90
23748;DHT22;12054;53.662;10.126;2022-12-18T14:51:53;-1.80;99.90
23748;DHT22;12054;53.662;10.126;2022-12-18T14:54:20;-1.80;99.90
23748;DHT22;12054;53.662;10.126;2022-12-18T14:56:48;-1.80;99.90
23748;DHT22;12054;53.662;10.126;2022-12-18T14:59:16;-1.80;99.90
23748;DHT22;12054;53.662;10.126;2022-12-18T15:01:56;-1.90;99.90
23748;DHT22;12054;53.662;10.126;2022-12-18T15:04:34;-1.90;99.90
23748;DHT22;12054;53.662;10.126;2022-12-18T15:07:19;-1.90;99.90
23748;DHT22;12054;53.662;10.126;2022-12-18T15:10:12;-1.90;99.90
23748;DHT22;12054;53.662;10.126;2022-12-18T15:12:44;-1.90;99.90
23748;DHT22;12054;53.662;10.126;2022-12-18T15:18:30;-2.00;99.90
23748;DHT22;12054;53.662;10.126;2022-12-18T15:20:59;-2.10;99.90
23748;DHT22;12054;53.662;10.126;2022-12-18T15:23:46;-2.10;99.90
23748;DHT22;12054;53.662;10.126;2022-12-18T15:26:14;-2.10;99.90
23748;DHT22;12054;53.662;10.126;2022-12-18T15:28:48;-2.10;99.90
23748;DHT22;12054;53.662;10.126;2022-12-18T15:34:11;-2.10;99.90
23748;DHT22;12054;53.662;10.126;2022-12-18T15:36:37;-2.10;99.90
23748;DHT22;12054;53.662;10.126;2022-12-18T15:39:04;-2.10;99.90
23748;DHT22;12054;53.662;10.126;2022-12-18T15:41:32;-2.20;99.90
23748;DHT22;12054;53.662;10.126;2022-12-18T15:43:59;-2.20;99.90
23748;DHT22;12054;53.662;10.126;2022-12-18T15:46:25;-2.20;99.90
23748;DHT22;12054;53.662;10.126;2022-12-18T15:48:54;-2.20;99.90
23748;DHT22;12054;53.662;10.126;2022-12-18T15:51:23;-2.30;99.90
23748;DHT22;12054;53.662;10.126;2022-12-18T15:53:51;-2.30;99.90
23748;DHT22;12054;53.662;10.126;2022-12-18T15:56:18;-2.30;99.90
23748;DHT22;12054;53.662;10.126;2022-12-18T15:59:08;-2.30;99.90
23748;DHT22;12054;53.662;10.126;2022-12-18T16:01:35;-2.40;99.90
23748;DHT22;12054;53.662;10.126;2022-12-18T16:04:00;-2.40;99.90
23748;DHT22;12054;53.662;10.126;2022-12-18T16:06:26;-2.40;99.90
23748;DHT22;12054;53.662;10.126;2022-12-18T16:08:51;-2.40;99.90
23748;DHT22;12054;53.662;10.126;2022-12-18T16:11:21;-2.40;99.90
23748;DHT22;12054;53.662;10.126;2022-12-18T16:14:15;-2.40;99.90
23748;DHT22;12054;53.662;10.126;2022-12-18T16:16:41;-2.40;99.90
23748;DHT22;12054;53.662;10.126;2022-12-18T16:19:07;-2.40;99.90
23748;DHT22;12054;53.662;10.126;2022-12-18T16:21:33;-2.40;99.90
23748;DHT22;12054;53.662;10.126;2022-12-18T16:23:58;-2.40;99.90
23748;DHT22;12054;53.662;10.126;2022-12-18T16:26:24;-2.50;99.90
23748;DHT22;12054;53.662;10.126;2022-12-18T16:28:49;-2.50;99.90
23748;DHT22;12054;53.662;10.126;2022-12-18T16:31:14;-2.50;99.90
23748;DHT22;12054;53.662;10.126;2022-12-18T16:33:40;-2.50;99.90
23748;DHT22;12054;53.662;10.126;2022-12-18T16:36:06;-2.50;99.90
23748;DHT22;12054;53.662;10.126;2022-12-18T16:38:31;-2.50;99.90
23748;DHT22;12054;53.662;10.126;2022-12-18T16:40:57;-2.50;99.90
23748;DHT22;12054;53.662;10.126;2022-12-18T16:43:41;-2.50;99.90
23748;DHT22;12054;53.662;10.126;2022-12-18T16:46:06;-2.50;99.90
23748;DHT22;12054;53.662;10.126;2022-12-18T16:48:35;-2.50;99.90
23748;DHT22;12054;53.662;10.126;2022-12-18T16:51:04;-2.60;99.90
23748;DHT22;12054;53.662;10.126;2022-12-18T16:53:31;-2.60;99.90